sensor_id;sensor_type;location;lat;lon;timestamp;P1;durP1;ratioP1;P2;durP2;ratioP2
40659;SDS011;26753;45.544;9.232;2024-02-04T00:02:03;16.38;;;11.48;;
40659;SDS011;26753;45.544;9.232;2024-02-04T00:04:29;20.90;;;12.73;;
40659;SDS011;26753;45.544;9.232;2024-02-04T00:06:57;18.30;;;12.50;;
40659;SDS011;26753;45.544;9.232;2024-02-04T00:09:23;16.50;;;11.98;;
40659;SDS011;26753;45.544;9.232;2024-02-04T00:11:48;16.77;;;11.95;;
40659;SDS011;26753;45.544;9.232;2024-02-04T00:14:15;18.55;;;11.90;;
40659;SDS011;26753;45.544;9.232;2024-02-04T00:16:43;19.77;;;11.90;;
40659;SDS011;26753;45.544;9.232;2024-02-04T00:19:09;19.45;;;11.88;;
40659;SDS011;26753;45.544;9.232;2024-02-04T00:21:36;18.65;;;11.95;;
40659;SDS011;26753;45.544;9.232;2024-02-04T00:24:02;18.77;;;11.82;;
40659;SDS011;26753;45.544;9.232;2024-02-04T00:26:28;18.08;;;11.52;;
40659;SDS011;26753;45.544;9.232;2024-02-04T00:28:54;19.38;;;12.05;;
40659;SDS011;26753;45.544;9.232;2024-02-04T00:31:23;17.23;;;11.85;;
40659;SDS011;26753;45.544;9.232;2024-02-04T00:33:49;17.98;;;11.93;;
40659;SDS011;26753;45.544;9.232;2024-02-04T00:36:21;16.90;;;11.88;;
40659;SDS011;26753;45.544;9.232;2024-02-04T00:38:46;22.00;;;12.23;;
40659;SDS011;26753;45.544;9.232;2024-02-04T00:41:13;19.42;;;11.50;;
40659;SDS011;26753;45.544;9.232;2024-02-04T00:43:39;16.92;;;11.70;;
40659;SDS011;26753;45.544;9.232;2024-02-04T00:46:07;18.08;;;11.90;;
40659;SDS011;26753;45.544;9.232;2024-02-04T00:48:35;19.88;;;12.30;;
40659;SDS011;26753;45.544;9.232;2024-02-04T00:51:02;20.13;;;13.07;;
40659;SDS011;26753;45.544;9.232;2024-02-04T00:53:28;16.38;;;11.90;;
40659;SDS011;26753;45.544;9.232;2024-02-04T00:56:02;17.25;;;11.57;;
40659;SDS011;26753;45.544;9.232;2024-02-04T00:58:29;20.98;;;12.13;;
40659;SDS011;26753;45.544;9.232;2024-02-04T01:00:55;17.58;;;11.60;;
40659;SDS011;26753;45.544;9.232;2024-02-04T01:03:21;17.70;;;11.68;;
40659;SDS011;26753;45.544;9.232;2024-02-04T01:05:46;16.73;;;11.93;;
40659;SDS011;26753;45.544;9.232;2024-02-04T01:08:12;20.55;;;11.93;;
40659;SDS011;26753;45.544;9.232;2024-02-04T01:10:38;19.88;;;12.18;;
40659;SDS011;26753;45.544;9.232;2024-02-04T01:13:04;18.65;;;11.82;;
40659;SDS011;26753;45.544;9.232;2024-02-04T01:15:30;17.00;;;12.15;;
40659;SDS011;26753;45.544;9.232;2024-02-04T01:17:55;20.30;;;12.60;;
40659;SDS011;26753;45.544;9.232;2024-02-04T01:20:21;19.20;;;12.60;;
40659;SDS011;26753;45.544;9.232;2024-02-04T01:22:47;18.55;;;11.98;;
40659;SDS011;26753;45.544;9.232;2024-02-04T01:25:13;18.38;;;12.68;;
40659;SDS011;26753;45.544;9.232;2024-02-04T01:27:39;19.35;;;12.48;;
40659;SDS011;26753;45.544;9.232;2024-02-04T01:30:05;19.48;;;12.68;;
40659;SDS011;26753;45.544;9.232;2024-02-04T01:32:31;20.45;;;12.57;;
40659;SDS011;26753;45.544;9.232;2024-02-04T01:34:57;20.75;;;12.30;;
40659;SDS011;26753;45.544;9.232;2024-02-04T01:37:23;17.58;;;12.48;;
40659;SDS011;26753;45.544;9.232;2024-02-04T01:39:49;18.08;;;12.63;;
40659;SDS011;26753;45.544;9.232;2024-02-04T01:42:14;19.67;;;12.27;;
40659;SDS011;26753;45.544;9.232;2024-02-04T01:44:40;19.50;;;12.32;;
40659;SDS011;26753;45.544;9.232;2024-02-04T01:47:07;20.02;;;12.85;;
40659;SDS011;26753;45.544;9.232;2024-02-04T01:49:33;20.15;;;12.20;;
40659;SDS011;26753;45.544;9.232;2024-02-04T01:51:59;19.55;;;12.80;;
40659;SDS011;26753;45.544;9.232;2024-02-04T01:54:25;19.63;;;12.45;;
40659;SDS011;26753;45.544;9.232;2024-02-04T01:56:52;19.85;;;12.70;;
40659;SDS011;26753;45.544;9.232;2024-02-04T01:59:20;21.70;;;13.25;;
40659;SDS011;26753;45.544;9.232;2024-02-04T02:01:53;20.40;;;12.93;;
40659;SDS011;26753;45.544;9.232;2024-02-04T02:04:19;20.70;;;12.68;;
40659;SDS011;26753;45.544;9.232;2024-02-04T02:06:46;20.10;;;12.50;;
40659;SDS011;26753;45.544;9.232;2024-02-04T02:09:12;19.10;;;12.75;;
40659;SDS011;26753;45.544;9.232;2024-02-04T02:11:42;18.85;;;12.63;;
40659;SDS011;26753;45.544;9.232;2024-02-04T02:14:17;18.75;;;13.50;;
40659;SDS011;26753;45.544;9.232;2024-02-04T02:16:56;21.17;;;13.05;;
40659;SDS011;26753;45.544;9.232;2024-02-04T02:22:04;20.50;;;12.65;;
40659;SDS011;26753;45.544;9.232;2024-02-04T02:24:40;20.35;;;12.38;;
40659;SDS011;26753;45.544;9.232;2024-02-04T02:27:13;20.77;;;12.57;;
40659;SDS011;26753;45.544;9.232;2024-02-04T02:29:42;17.57;;;11.87;;
40659;SDS011;26753;45.544;9.232;2024-02-04T02:32:11;18.67;;;12.88;;
40659;SDS011;26753;45.544;9.232;2024-02-04T02:34:37;21.50;;;13.13;;
40659;SDS011;26753;45.544;9.232;2024-02-04T02:39:36;23.88;;;13.80;;
40659;SDS011;26753;45.544;9.232;2024-02-04T02:42:07;22.05;;;13.50;;
40659;SDS011;26753;45.544;9.232;2024-02-04T02:44:36;19.50;;;13.05;;
40659;SDS011;26753;45.544;9.232;2024-02-04T02:47:04;20.10;;;13.10;;
40659;SDS011;26753;45.544;9.232;2024-02-04T02:52:02;20.33;;;13.60;;
40659;SDS011;26753;45.544;9.232;2024-02-04T02:54:28;20.85;;;13.50;;
40659;SDS011;26753;45.544;9.232;2024-02-04T02:56:54;21.17;;;13.52;;
40659;SDS011;26753;45.544;9.232;2024-02-04T02:59:20;21.70;;;14.13;;
40659;SDS011;26753;45.544;9.232;2024-02-04T03:01:46;21.02;;;13.45;;
40659;SDS011;26753;45.544;9.232;2024-02-04T03:04:12;21.27;;;13.48;;
40659;SDS011;26753;45.544;9.232;2024-02-04T03:06:37;19.00;;;13.63;;
40659;SDS011;26753;45.544;9.232;2024-02-04T03:09:03;21.88;;;13.75;;
40659;SDS011;26753;45.544;9.232;2024-02-04T03:11:29;21.48;;;13.57;;
40659;SDS011;26753;45.544;9.232;2024-02-04T03:13:55;21.02;;;13.80;;
40659;SDS011;26753;45.544;9.232;2024-02-04T03:16:21;19.70;;;13.57;;
40659;SDS011;26753;45.544;9.232;2024-02-04T03:18:46;22.80;;;13.07;;
40659;SDS011;26753;45.544;9.232;2024-02-04T03:21:13;20.38;;;12.98;;
40659;SDS011;26753;45.544;9.232;2024-02-04T03:23:39;22.58;;;13.95;;
40659;SDS011;26753;45.544;9.232;2024-02-04T03:26:06;21.33;;;14.10;;
40659;SDS011;26753;45.544;9.232;2024-02-04T03:28:32;22.65;;;13.93;;
40659;SDS011;26753;45.544;9.232;2024-02-04T03:30:58;21.25;;;13.95;;
40659;SDS011;26753;45.544;9.232;2024-02-04T03:33:26;21.40;;;13.77;;
40659;SDS011;26753;45.544;9.232;2024-02-04T03:35:52;20.88;;;13.82;;
40659;SDS011;26753;45.544;9.232;2024-02-04T03:38:18;21.77;;;14.07;;
40659;SDS011;26753;45.544;9.232;2024-02-04T03:40:44;21.67;;;13.82;;
40659;SDS011;26753;45.544;9.232;2024-02-04T03:43:10;20.65;;;14.02;;
40659;SDS011;26753;45.544;9.232;2024-02-04T03:45:36;20.60;;;13.55;;
40659;SDS011;26753;45.544;9.232;2024-02-04T03:48:02;19.83;;;13.60;;
40659;SDS011;26753;45.544;9.232;2024-02-04T03:50:28;20.23;;;13.75;;
40659;SDS011;26753;45.544;9.232;2024-02-04T03:52:54;20.55;;;13.65;;
40659;SDS011;26753;45.544;9.232;2024-02-04T03:55:20;20.27;;;14.07;;
40659;SDS011;26753;45.544;9.232;2024-02-04T03:57:47;20.52;;;13.50;;
40659;SDS011;26753;45.544;9.232;2024-02-04T04:00:13;21.35;;;14.18;;
40659;SDS011;26753;45.544;9.232;2024-02-04T04:02:40;22.20;;;14.05;;
40659;SDS011;26753;45.544;9.232;2024-02-04T04:05:06;21.77;;;13.98;;
40659;SDS011;26753;45.544;9.232;2024-02-04T04:07:38;23.02;;;14.25;;
40659;SDS011;26753;45.544;9.232;2024-02-04T04:10:05;22.05;;;14.05;;
40659;SDS011;26753;45.544;9.232;2024-02-04T04:12:31;24.25;;;15.15;;
40659;SDS011;26753;45.544;9.232;2024-02-04T04:14:56;23.42;;;15.05;;
40659;SDS011;26753;45.544;9.232;2024-02-04T04:17:22;22.38;;;14.95;;
40659;SDS011;26753;45.544;9.232;2024-02-04T04:19:48;24.15;;;15.25;;
40659;SDS011;26753;45.544;9.232;2024-02-04T04:24:47;26.10;;;16.45;;
40659;SDS011;26753;45.544;9.232;2024-02-04T04:27:13;24.30;;;16.08;;
40659;SDS011;26753;45.544;9.232;2024-02-04T04:29:39;26.13;;;16.83;;
40659;SDS011;26753;45.544;9.232;2024-02-04T04:32:05;25.73;;;16.65;;
40659;SDS011;26753;45.544;9.232;2024-02-04T04:34:31;27.45;;;16.48;;
40659;SDS011;26753;45.544;9.232;2024-02-04T04:36:57;26.55;;;16.48;;
40659;SDS011;26753;45.544;9.232;2024-02-04T04:39:22;25.98;;;17.02;;
40659;SDS011;26753;45.544;9.232;2024-02-04T04:41:48;28.23;;;16.88;;
40659;SDS011;26753;45.544;9.232;2024-02-04T04:44:14;25.52;;;16.88;;
40659;SDS011;26753;45.544;9.232;2024-02-04T04:46:40;27.63;;;16.67;;
40659;SDS011;26753;45.544;9.232;2024-02-04T04:49:05;26.13;;;17.25;;
40659;SDS011;26753;45.544;9.232;2024-02-04T04:51:31;25.05;;;16.42;;
40659;SDS011;26753;45.544;9.232;2024-02-04T04:53:58;26.20;;;17.35;;
40659;SDS011;26753;45.544;9.232;2024-02-04T04:56:24;27.67;;;17.40;;
40659;SDS011;26753;45.544;9.232;2024-02-04T04:58:50;28.25;;;17.85;;
40659;SDS011;26753;45.544;9.232;2024-02-04T05:01:16;27.30;;;16.90;;
40659;SDS011;26753;45.544;9.232;2024-02-04T05:03:42;25.77;;;16.92;;
40659;SDS011;26753;45.544;9.232;2024-02-04T05:06:09;30.00;;;17.27;;
40659;SDS011;26753;45.544;9.232;2024-02-04T05:08:38;28.02;;;17.23;;
40659;SDS011;26753;45.544;9.232;2024-02-04T05:11:04;26.75;;;18.05;;
40659;SDS011;26753;45.544;9.232;2024-02-04T05:13:30;27.73;;;17.52;;
40659;SDS011;26753;45.544;9.232;2024-02-04T05:15:55;27.90;;;17.30;;
40659;SDS011;26753;45.544;9.232;2024-02-04T05:18:21;27.30;;;17.70;;
40659;SDS011;26753;45.544;9.232;2024-02-04T05:20:47;27.13;;;17.23;;
40659;SDS011;26753;45.544;9.232;2024-02-04T05:23:13;27.67;;;17.73;;
40659;SDS011;26753;45.544;9.232;2024-02-04T05:25:42;25.48;;;17.08;;
40659;SDS011;26753;45.544;9.232;2024-02-04T05:28:08;24.98;;;16.88;;
40659;SDS011;26753;45.544;9.232;2024-02-04T05:30:40;27.08;;;17.98;;
40659;SDS011;26753;45.544;9.232;2024-02-04T05:33:16;29.92;;;17.80;;
40659;SDS011;26753;45.544;9.232;2024-02-04T05:35:45;28.42;;;18.65;;
40659;SDS011;26753;45.544;9.232;2024-02-04T05:38:11;29.80;;;18.67;;
40659;SDS011;26753;45.544;9.232;2024-02-04T05:40:36;29.67;;;18.75;;
40659;SDS011;26753;45.544;9.232;2024-02-04T05:43:02;29.77;;;18.83;;
40659;SDS011;26753;45.544;9.232;2024-02-04T05:45:35;28.35;;;18.10;;
40659;SDS011;26753;45.544;9.232;2024-02-04T05:48:04;26.95;;;18.05;;
40659;SDS011;26753;45.544;9.232;2024-02-04T05:50:30;27.17;;;18.83;;
40659;SDS011;26753;45.544;9.232;2024-02-04T05:52:56;30.58;;;18.13;;
40659;SDS011;26753;45.544;9.232;2024-02-04T05:55:22;31.45;;;18.27;;
40659;SDS011;26753;45.544;9.232;2024-02-04T05:57:48;29.42;;;18.50;;
40659;SDS011;26753;45.544;9.232;2024-02-04T06:00:14;28.52;;;18.38;;
40659;SDS011;26753;45.544;9.232;2024-02-04T06:02:40;32.92;;;19.50;;
40659;SDS011;26753;45.544;9.232;2024-02-04T06:05:08;30.15;;;19.10;;
40659;SDS011;26753;45.544;9.232;2024-02-04T06:07:34;29.23;;;19.23;;
40659;SDS011;26753;45.544;9.232;2024-02-04T06:10:00;30.10;;;19.27;;
40659;SDS011;26753;45.544;9.232;2024-02-04T06:12:28;27.60;;;18.90;;
40659;SDS011;26753;45.544;9.232;2024-02-04T06:14:55;30.83;;;19.88;;
40659;SDS011;26753;45.544;9.232;2024-02-04T06:17:21;31.13;;;20.42;;
40659;SDS011;26753;45.544;9.232;2024-02-04T06:19:47;35.08;;;21.23;;
40659;SDS011;26753;45.544;9.232;2024-02-04T06:22:14;36.67;;;21.38;;
40659;SDS011;26753;45.544;9.232;2024-02-04T06:24:40;29.25;;;19.90;;
40659;SDS011;26753;45.544;9.232;2024-02-04T06:27:10;31.92;;;20.27;;
40659;SDS011;26753;45.544;9.232;2024-02-04T06:29:36;29.48;;;19.90;;
40659;SDS011;26753;45.544;9.232;2024-02-04T06:32:02;31.92;;;19.83;;
40659;SDS011;26753;45.544;9.232;2024-02-04T06:34:28;33.05;;;20.48;;
40659;SDS011;26753;45.544;9.232;2024-02-04T06:36:54;30.63;;;20.02;;
40659;SDS011;26753;45.544;9.232;2024-02-04T06:39:20;36.55;;;20.65;;
40659;SDS011;26753;45.544;9.232;2024-02-04T06:41:45;33.17;;;21.30;;
40659;SDS011;26753;45.544;9.232;2024-02-04T06:44:11;30.50;;;19.83;;
40659;SDS011;26753;45.544;9.232;2024-02-04T06:46:37;34.88;;;21.17;;
40659;SDS011;26753;45.544;9.232;2024-02-04T06:49:12;33.75;;;20.95;;
40659;SDS011;26753;45.544;9.232;2024-02-04T06:51:43;30.13;;;20.38;;
40659;SDS011;26753;45.544;9.232;2024-02-04T06:54:10;32.88;;;19.65;;
40659;SDS011;26753;45.544;9.232;2024-02-04T06:56:39;32.22;;;20.73;;
40659;SDS011;26753;45.544;9.232;2024-02-04T06:59:08;34.28;;;20.10;;
40659;SDS011;26753;45.544;9.232;2024-02-04T07:01:34;33.08;;;19.10;;
40659;SDS011;26753;45.544;9.232;2024-02-04T07:04:00;35.65;;;22.30;;
40659;SDS011;26753;45.544;9.232;2024-02-04T07:06:35;30.98;;;20.27;;
40659;SDS011;26753;45.544;9.232;2024-02-04T07:09:01;41.15;;;19.85;;
40659;SDS011;26753;45.544;9.232;2024-02-04T07:11:27;30.90;;;19.83;;
40659;SDS011;26753;45.544;9.232;2024-02-04T07:13:53;35.08;;;21.83;;
40659;SDS011;26753;45.544;9.232;2024-02-04T07:16:24;35.42;;;22.83;;
40659;SDS011;26753;45.544;9.232;2024-02-04T07:18:50;37.67;;;22.15;;
40659;SDS011;26753;45.544;9.232;2024-02-04T07:21:22;36.27;;;21.87;;
40659;SDS011;26753;45.544;9.232;2024-02-04T07:23:54;34.75;;;21.38;;
40659;SDS011;26753;45.544;9.232;2024-02-04T07:26:20;33.85;;;21.88;;
40659;SDS011;26753;45.544;9.232;2024-02-04T07:28:45;36.25;;;21.77;;
40659;SDS011;26753;45.544;9.232;2024-02-04T07:31:11;34.65;;;21.73;;
40659;SDS011;26753;45.544;9.232;2024-02-04T07:33:37;35.05;;;22.63;;
40659;SDS011;26753;45.544;9.232;2024-02-04T07:36:03;36.80;;;21.35;;
40659;SDS011;26753;45.544;9.232;2024-02-04T07:38:29;32.45;;;21.13;;
40659;SDS011;26753;45.544;9.232;2024-02-04T07:40:55;35.00;;;21.83;;
40659;SDS011;26753;45.544;9.232;2024-02-04T07:43:23;36.45;;;21.83;;
40659;SDS011;26753;45.544;9.232;2024-02-04T07:45:50;39.03;;;23.48;;
40659;SDS011;26753;45.544;9.232;2024-02-04T07:48:15;42.90;;;25.35;;
40659;SDS011;26753;45.544;9.232;2024-02-04T07:50:45;40.42;;;24.25;;
40659;SDS011;26753;45.544;9.232;2024-02-04T07:53:14;39.95;;;25.33;;
40659;SDS011;26753;45.544;9.232;2024-02-04T07:55:40;41.35;;;26.25;;
40659;SDS011;26753;45.544;9.232;2024-02-04T07:58:06;46.55;;;28.13;;
40659;SDS011;26753;45.544;9.232;2024-02-04T08:00:31;50.30;;;30.02;;
40659;SDS011;26753;45.544;9.232;2024-02-04T08:02:57;56.13;;;32.38;;
40659;SDS011;26753;45.544;9.232;2024-02-04T08:05:23;58.47;;;33.45;;
40659;SDS011;26753;45.544;9.232;2024-02-04T08:07:48;65.38;;;34.35;;
40659;SDS011;26753;45.544;9.232;2024-02-04T08:10:14;62.13;;;35.15;;
40659;SDS011;26753;45.544;9.232;2024-02-04T08:12:41;60.25;;;34.20;;
40659;SDS011;26753;45.544;9.232;2024-02-04T08:15:07;67.82;;;36.83;;
40659;SDS011;26753;45.544;9.232;2024-02-04T08:17:32;66.50;;;37.13;;
40659;SDS011;26753;45.544;9.232;2024-02-04T08:19:58;63.38;;;36.97;;
40659;SDS011;26753;45.544;9.232;2024-02-04T08:22:24;65.32;;;37.65;;
40659;SDS011;26753;45.544;9.232;2024-02-04T08:24:50;62.17;;;35.95;;
40659;SDS011;26753;45.544;9.232;2024-02-04T08:27:16;69.50;;;39.20;;
40659;SDS011;26753;45.544;9.232;2024-02-04T08:29:43;65.80;;;38.63;;
40659;SDS011;26753;45.544;9.232;2024-02-04T08:32:08;53.33;;;32.50;;
40659;SDS011;26753;45.544;9.232;2024-02-04T08:34:44;53.92;;;33.25;;
40659;SDS011;26753;45.544;9.232;2024-02-04T08:37:15;53.88;;;33.35;;
40659;SDS011;26753;45.544;9.232;2024-02-04T08:42:18;54.50;;;32.42;;
40659;SDS011;26753;45.544;9.232;2024-02-04T08:44:44;54.17;;;33.28;;
40659;SDS011;26753;45.544;9.232;2024-02-04T08:47:11;53.92;;;32.80;;
40659;SDS011;26753;45.544;9.232;2024-02-04T08:49:42;51.05;;;31.10;;
40659;SDS011;26753;45.544;9.232;2024-02-04T08:52:08;58.95;;;36.70;;
40659;SDS011;26753;45.544;9.232;2024-02-04T08:54:34;55.80;;;34.45;;
40659;SDS011;26753;45.544;9.232;2024-02-04T08:57:00;61.25;;;36.38;;
40659;SDS011;26753;45.544;9.232;2024-02-04T08:59:29;58.55;;;36.83;;
40659;SDS011;26753;45.544;9.232;2024-02-04T09:01:54;56.22;;;36.80;;
40659;SDS011;26753;45.544;9.232;2024-02-04T09:04:20;62.50;;;37.83;;
40659;SDS011;26753;45.544;9.232;2024-02-04T09:06:46;64.68;;;39.85;;
40659;SDS011;26753;45.544;9.232;2024-02-04T09:09:11;60.08;;;37.50;;
40659;SDS011;26753;45.544;9.232;2024-02-04T09:11:37;61.22;;;36.67;;
40659;SDS011;26753;45.544;9.232;2024-02-04T09:14:03;56.90;;;37.20;;
40659;SDS011;26753;45.544;9.232;2024-02-04T09:16:29;60.72;;;37.67;;
40659;SDS011;26753;45.544;9.232;2024-02-04T09:19:07;60.58;;;38.45;;
40659;SDS011;26753;45.544;9.232;2024-02-04T09:21:33;63.95;;;40.45;;
40659;SDS011;26753;45.544;9.232;2024-02-04T09:23:59;63.08;;;39.47;;
40659;SDS011;26753;45.544;9.232;2024-02-04T09:26:25;60.85;;;39.17;;
40659;SDS011;26753;45.544;9.232;2024-02-04T09:28:51;66.20;;;39.35;;
40659;SDS011;26753;45.544;9.232;2024-02-04T09:31:16;67.63;;;40.05;;
40659;SDS011;26753;45.544;9.232;2024-02-04T09:33:42;62.40;;;38.33;;
40659;SDS011;26753;45.544;9.232;2024-02-04T09:36:08;63.60;;;38.55;;
40659;SDS011;26753;45.544;9.232;2024-02-04T09:38:34;56.03;;;37.53;;
40659;SDS011;26753;45.544;9.232;2024-02-04T09:41:00;59.95;;;38.72;;
40659;SDS011;26753;45.544;9.232;2024-02-04T09:43:47;63.53;;;39.10;;
40659;SDS011;26753;45.544;9.232;2024-02-04T09:46:15;62.53;;;39.28;;
40659;SDS011;26753;45.544;9.232;2024-02-04T09:48:42;63.58;;;38.63;;
40659;SDS011;26753;45.544;9.232;2024-02-04T09:51:10;58.60;;;37.92;;
40659;SDS011;26753;45.544;9.232;2024-02-04T09:53:36;58.33;;;37.67;;
40659;SDS011;26753;45.544;9.232;2024-02-04T09:56:10;57.65;;;37.35;;
40659;SDS011;26753;45.544;9.232;2024-02-04T09:58:46;55.60;;;37.08;;
40659;SDS011;26753;45.544;9.232;2024-02-04T10:01:11;52.42;;;34.13;;
40659;SDS011;26753;45.544;9.232;2024-02-04T10:03:39;47.40;;;31.70;;
40659;SDS011;26753;45.544;9.232;2024-02-04T10:06:07;47.28;;;32.05;;
40659;SDS011;26753;45.544;9.232;2024-02-04T10:08:42;44.97;;;30.83;;
40659;SDS011;26753;45.544;9.232;2024-02-04T10:11:09;46.05;;;30.10;;
40659;SDS011;26753;45.544;9.232;2024-02-04T10:13:48;43.10;;;28.30;;
40659;SDS011;26753;45.544;9.232;2024-02-04T10:16:16;39.88;;;26.88;;
40659;SDS011;26753;45.544;9.232;2024-02-04T10:18:46;39.72;;;27.77;;
40659;SDS011;26753;45.544;9.232;2024-02-04T10:21:23;42.13;;;27.25;;
40659;SDS011;26753;45.544;9.232;2024-02-04T10:23:50;40.00;;;27.65;;
40659;SDS011;26753;45.544;9.232;2024-02-04T10:26:16;41.92;;;27.88;;
40659;SDS011;26753;45.544;9.232;2024-02-04T10:28:46;36.75;;;25.73;;
40659;SDS011;26753;45.544;9.232;2024-02-04T10:31:12;37.40;;;25.45;;
40659;SDS011;26753;45.544;9.232;2024-02-04T10:33:38;39.75;;;27.02;;
40659;SDS011;26753;45.544;9.232;2024-02-04T10:36:05;39.00;;;25.20;;
40659;SDS011;26753;45.544;9.232;2024-02-04T10:38:34;33.85;;;24.17;;
40659;SDS011;26753;45.544;9.232;2024-02-04T10:41:00;37.92;;;25.38;;
40659;SDS011;26753;45.544;9.232;2024-02-04T10:43:31;39.22;;;26.67;;
40659;SDS011;26753;45.544;9.232;2024-02-04T10:46:01;38.83;;;26.23;;
40659;SDS011;26753;45.544;9.232;2024-02-04T10:48:48;38.22;;;26.63;;
40659;SDS011;26753;45.544;9.232;2024-02-04T10:51:39;38.60;;;27.52;;
40659;SDS011;26753;45.544;9.232;2024-02-04T10:54:07;40.80;;;28.65;;
40659;SDS011;26753;45.544;9.232;2024-02-04T10:59:07;40.10;;;29.05;;
40659;SDS011;26753;45.544;9.232;2024-02-04T11:01:37;41.97;;;28.98;;
40659;SDS011;26753;45.544;9.232;2024-02-04T11:04:11;43.00;;;28.85;;
40659;SDS011;26753;45.544;9.232;2024-02-04T11:06:38;41.47;;;29.27;;
40659;SDS011;26753;45.544;9.232;2024-02-04T11:09:08;43.80;;;30.02;;
40659;SDS011;26753;45.544;9.232;2024-02-04T11:11:37;42.65;;;29.58;;
40659;SDS011;26753;45.544;9.232;2024-02-04T11:14:09;41.08;;;30.00;;
40659;SDS011;26753;45.544;9.232;2024-02-04T11:25:25;37.13;;;25.30;;
40659;SDS011;26753;45.544;9.232;2024-02-04T11:28:26;36.45;;;26.50;;
40659;SDS011;26753;45.544;9.232;2024-02-04T11:31:04;38.97;;;26.50;;
40659;SDS011;26753;45.544;9.232;2024-02-04T11:33:41;39.60;;;27.52;;
40659;SDS011;26753;45.544;9.232;2024-02-04T11:36:15;41.92;;;27.75;;
40659;SDS011;26753;45.544;9.232;2024-02-04T11:38:43;38.90;;;27.60;;
40659;SDS011;26753;45.544;9.232;2024-02-04T11:41:43;38.60;;;26.30;;
40659;SDS011;26753;45.544;9.232;2024-02-04T11:44:11;36.80;;;26.73;;
40659;SDS011;26753;45.544;9.232;2024-02-04T11:46:37;34.97;;;24.67;;
40659;SDS011;26753;45.544;9.232;2024-02-04T11:49:24;37.70;;;26.08;;
40659;SDS011;26753;45.544;9.232;2024-02-04T11:51:57;34.28;;;24.65;;
40659;SDS011;26753;45.544;9.232;2024-02-04T11:54:22;36.75;;;24.83;;
40659;SDS011;26753;45.544;9.232;2024-02-04T11:56:53;36.72;;;23.88;;
40659;SDS011;26753;45.544;9.232;2024-02-04T11:59:24;33.35;;;24.05;;
40659;SDS011;26753;45.544;9.232;2024-02-04T12:01:55;37.03;;;24.40;;
40659;SDS011;26753;45.544;9.232;2024-02-04T12:04:21;43.15;;;25.70;;
40659;SDS011;26753;45.544;9.232;2024-02-04T12:06:48;37.42;;;25.63;;
40659;SDS011;26753;45.544;9.232;2024-02-04T12:09:18;33.60;;;24.33;;
40659;SDS011;26753;45.544;9.232;2024-02-04T12:11:44;36.47;;;24.75;;
40659;SDS011;26753;45.544;9.232;2024-02-04T12:14:11;32.67;;;23.17;;
40659;SDS011;26753;45.544;9.232;2024-02-04T12:16:38;35.78;;;23.90;;
40659;SDS011;26753;45.544;9.232;2024-02-04T12:19:05;35.03;;;24.35;;
40659;SDS011;26753;45.544;9.232;2024-02-04T12:21:31;35.35;;;24.02;;
40659;SDS011;26753;45.544;9.232;2024-02-04T12:23:58;32.97;;;23.35;;
40659;SDS011;26753;45.544;9.232;2024-02-04T12:26:27;59.55;;;28.45;;
40659;SDS011;26753;45.544;9.232;2024-02-04T12:28:53;34.15;;;23.15;;
40659;SDS011;26753;45.544;9.232;2024-02-04T12:31:20;33.05;;;23.23;;
40659;SDS011;26753;45.544;9.232;2024-02-04T12:33:53;36.67;;;23.63;;
40659;SDS011;26753;45.544;9.232;2024-02-04T12:36:29;36.67;;;27.33;;
40659;SDS011;26753;45.544;9.232;2024-02-04T12:38:56;35.75;;;23.92;;
40659;SDS011;26753;45.544;9.232;2024-02-04T12:41:25;50.42;;;32.90;;
40659;SDS011;26753;45.544;9.232;2024-02-04T12:43:58;34.40;;;23.48;;
40659;SDS011;26753;45.544;9.232;2024-02-04T12:46:25;32.22;;;21.42;;
40659;SDS011;26753;45.544;9.232;2024-02-04T12:48:55;27.02;;;20.52;;
40659;SDS011;26753;45.544;9.232;2024-02-04T12:51:25;23.75;;;17.85;;
40659;SDS011;26753;45.544;9.232;2024-02-04T12:54:06;21.48;;;16.70;;
40659;SDS011;26753;45.544;9.232;2024-02-04T12:56:41;22.92;;;15.45;;
40659;SDS011;26753;45.544;9.232;2024-02-04T12:59:29;24.13;;;15.43;;
40659;SDS011;26753;45.544;9.232;2024-02-04T13:01:57;19.95;;;14.88;;
40659;SDS011;26753;45.544;9.232;2024-02-04T13:04:47;19.55;;;14.93;;
40659;SDS011;26753;45.544;9.232;2024-02-04T13:07:15;19.58;;;14.05;;
40659;SDS011;26753;45.544;9.232;2024-02-04T13:09:44;16.27;;;12.60;;
40659;SDS011;26753;45.544;9.232;2024-02-04T13:12:22;17.23;;;11.25;;
40659;SDS011;26753;45.544;9.232;2024-02-04T13:14:51;14.55;;;9.80;;
40659;SDS011;26753;45.544;9.232;2024-02-04T13:17:23;11.07;;;9.45;;
40659;SDS011;26753;45.544;9.232;2024-02-04T13:19:51;13.48;;;9.82;;
40659;SDS011;26753;45.544;9.232;2024-02-04T13:22:17;14.05;;;10.05;;
40659;SDS011;26753;45.544;9.232;2024-02-04T13:24:43;11.73;;;9.80;;
40659;SDS011;26753;45.544;9.232;2024-02-04T13:27:28;14.63;;;9.95;;
40659;SDS011;26753;45.544;9.232;2024-02-04T13:30:06;11.77;;;9.63;;
40659;SDS011;26753;45.544;9.232;2024-02-04T13:42:41;24.55;;;17.08;;
40659;SDS011;26753;45.544;9.232;2024-02-04T13:45:20;14.90;;;11.13;;
40659;SDS011;26753;45.544;9.232;2024-02-04T13:47:47;15.13;;;11.40;;
40659;SDS011;26753;45.544;9.232;2024-02-04T13:50:13;18.42;;;12.48;;
40659;SDS011;26753;45.544;9.232;2024-02-04T13:52:45;16.13;;;11.18;;
40659;SDS011;26753;45.544;9.232;2024-02-04T13:55:36;15.82;;;10.77;;
40659;SDS011;26753;45.544;9.232;2024-02-04T13:58:05;16.73;;;11.23;;
40659;SDS011;26753;45.544;9.232;2024-02-04T14:00:34;16.90;;;11.30;;
40659;SDS011;26753;45.544;9.232;2024-02-04T14:05:38;16.10;;;10.98;;
40659;SDS011;26753;45.544;9.232;2024-02-04T14:08:27;15.73;;;11.70;;
40659;SDS011;26753;45.544;9.232;2024-02-04T14:11:04;17.63;;;11.95;;
40659;SDS011;26753;45.544;9.232;2024-02-04T14:13:53;18.77;;;12.05;;
40659;SDS011;26753;45.544;9.232;2024-02-04T14:16:19;20.45;;;13.07;;
40659;SDS011;26753;45.544;9.232;2024-02-04T14:18:52;18.88;;;13.68;;
40659;SDS011;26753;45.544;9.232;2024-02-04T14:21:29;20.07;;;13.33;;
40659;SDS011;26753;45.544;9.232;2024-02-04T14:24:07;19.00;;;13.65;;
40659;SDS011;26753;45.544;9.232;2024-02-04T14:26:36;18.40;;;13.25;;
40659;SDS011;26753;45.544;9.232;2024-02-04T14:29:02;18.95;;;13.82;;
40659;SDS011;26753;45.544;9.232;2024-02-04T14:31:36;18.52;;;13.60;;
40659;SDS011;26753;45.544;9.232;2024-02-04T14:34:10;21.77;;;14.10;;
40659;SDS011;26753;45.544;9.232;2024-02-04T14:36:48;20.15;;;13.73;;
40659;SDS011;26753;45.544;9.232;2024-02-04T14:39:31;20.27;;;13.85;;
40659;SDS011;26753;45.544;9.232;2024-02-04T14:45:30;25.42;;;14.30;;
40659;SDS011;26753;45.544;9.232;2024-02-04T14:48:17;19.40;;;14.77;;
40659;SDS011;26753;45.544;9.232;2024-02-04T14:50:46;23.13;;;15.82;;
40659;SDS011;26753;45.544;9.232;2024-02-04T14:53:31;23.52;;;15.75;;
40659;SDS011;26753;45.544;9.232;2024-02-04T14:56:23;24.67;;;15.70;;
40659;SDS011;26753;45.544;9.232;2024-02-04T14:59:04;23.58;;;16.38;;
40659;SDS011;26753;45.544;9.232;2024-02-04T15:01:44;24.50;;;16.65;;
40659;SDS011;26753;45.544;9.232;2024-02-04T15:04:17;22.35;;;16.27;;
40659;SDS011;26753;45.544;9.232;2024-02-04T15:06:43;23.48;;;17.23;;
40659;SDS011;26753;45.544;9.232;2024-02-04T15:12:45;25.30;;;17.98;;
40659;SDS011;26753;45.544;9.232;2024-02-04T15:21:58;27.52;;;18.58;;